sensor_id;sensor_type;location;lat;lon;timestamp;P1;durP1;ratioP1;P2;durP2;ratioP2
22040;SDS011;11184;52.444;13.578;2024-01-15T00:00:05;12.93;;;9.88;;
22040;SDS011;11184;52.444;13.578;2024-01-15T00:02:50;13.95;;;10.35;;
22040;SDS011;11184;52.444;13.578;2024-01-15T00:05:34;22.50;;;11.35;;
22040;SDS011;11184;52.444;13.578;2024-01-15T00:08:19;18.70;;;11.52;;
22040;SDS011;11184;52.444;13.578;2024-01-15T00:11:04;10.40;;;9.27;;
22040;SDS011;11184;52.444;13.578;2024-01-15T00:13:48;10.05;;;8.82;;
22040;SDS011;11184;52.444;13.578;2024-01-15T00:16:33;11.65;;;10.43;;
22040;SDS011;11184;52.444;13.578;2024-01-15T00:19:17;13.65;;;12.05;;
22040;SDS011;11184;52.444;13.578;2024-01-15T00:22:02;11.60;;;10.38;;
22040;SDS011;11184;52.444;13.578;2024-01-15T00:24:47;11.65;;;10.45;;
22040;SDS011;11184;52.444;13.578;2024-01-15T00:27:31;11.80;;;10.60;;
22040;SDS011;11184;52.444;13.578;2024-01-15T00:30:16;16.73;;;12.48;;
22040;SDS011;11184;52.444;13.578;2024-01-15T00:33:01;14.80;;;11.85;;
22040;SDS011;11184;52.444;13.578;2024-01-15T00:35:45;12.90;;;10.82;;
22040;SDS011;11184;52.444;13.578;2024-01-15T00:38:30;12.35;;;10.98;;
22040;SDS011;11184;52.444;13.578;2024-01-15T00:41:15;13.63;;;10.93;;
22040;SDS011;11184;52.444;13.578;2024-01-15T00:43:59;14.15;;;12.23;;
22040;SDS011;11184;52.444;13.578;2024-01-15T00:46:44;14.30;;;11.38;;
22040;SDS011;11184;52.444;13.578;2024-01-15T00:49:29;14.32;;;12.43;;
22040;SDS011;11184;52.444;13.578;2024-01-15T00:52:14;11.98;;;9.52;;
22040;SDS011;11184;52.444;13.578;2024-01-15T00:54:59;13.88;;;11.13;;
22040;SDS011;11184;52.444;13.578;2024-01-15T00:57:43;15.98;;;11.60;;
22040;SDS011;11184;52.444;13.578;2024-01-15T01:00:28;11.45;;;10.27;;
22040;SDS011;11184;52.444;13.578;2024-01-15T01:03:12;14.45;;;13.10;;
22040;SDS011;11184;52.444;13.578;2024-01-15T01:05:57;15.93;;;10.82;;
22040;SDS011;11184;52.444;13.578;2024-01-15T01:08:42;11.52;;;9.93;;
22040;SDS011;11184;52.444;13.578;2024-01-15T01:11:26;19.55;;;11.95;;
22040;SDS011;11184;52.444;13.578;2024-01-15T01:14:11;13.57;;;10.32;;
22040;SDS011;11184;52.444;13.578;2024-01-15T01:16:55;13.13;;;10.57;;
22040;SDS011;11184;52.444;13.578;2024-01-15T01:19:40;12.30;;;11.10;;
22040;SDS011;11184;52.444;13.578;2024-01-15T01:22:24;11.82;;;10.30;;
22040;SDS011;11184;52.444;13.578;2024-01-15T01:25:09;13.82;;;10.70;;
22040;SDS011;11184;52.444;13.578;2024-01-15T01:27:54;13.70;;;11.05;;
22040;SDS011;11184;52.444;13.578;2024-01-15T01:30:38;11.60;;;10.20;;
22040;SDS011;11184;52.444;13.578;2024-01-15T01:33:23;12.18;;;10.75;;
22040;SDS011;11184;52.444;13.578;2024-01-15T01:36:08;11.27;;;10.07;;
22040;SDS011;11184;52.444;13.578;2024-01-15T01:38:53;12.35;;;10.95;;
22040;SDS011;11184;52.444;13.578;2024-01-15T01:41:38;13.80;;;11.52;;
22040;SDS011;11184;52.444;13.578;2024-01-15T01:44:23;11.77;;;10.63;;
22040;SDS011;11184;52.444;13.578;2024-01-15T01:47:08;12.68;;;11.10;;
22040;SDS011;11184;52.444;13.578;2024-01-15T01:49:53;15.18;;;11.43;;
22040;SDS011;11184;52.444;13.578;2024-01-15T01:52:38;15.05;;;11.77;;
22040;SDS011;11184;52.444;13.578;2024-01-15T01:55:24;15.25;;;11.25;;
22040;SDS011;11184;52.444;13.578;2024-01-15T01:58:09;13.68;;;12.32;;
22040;SDS011;11184;52.444;13.578;2024-01-15T02:00:54;15.75;;;12.07;;
22040;SDS011;11184;52.444;13.578;2024-01-15T02:03:39;13.55;;;12.02;;
22040;SDS011;11184;52.444;13.578;2024-01-15T02:06:24;13.90;;;11.27;;
22040;SDS011;11184;52.444;13.578;2024-01-15T02:09:09;14.20;;;12.43;;
22040;SDS011;11184;52.444;13.578;2024-01-15T02:11:53;19.20;;;13.30;;
22040;SDS011;11184;52.444;13.578;2024-01-15T02:14:39;15.52;;;11.88;;
22040;SDS011;11184;52.444;13.578;2024-01-15T02:17:24;14.80;;;11.75;;
22040;SDS011;11184;52.444;13.578;2024-01-15T02:20:09;16.75;;;13.32;;
22040;SDS011;11184;52.444;13.578;2024-01-15T02:22:53;20.25;;;12.32;;
22040;SDS011;11184;52.444;13.578;2024-01-15T02:25:39;15.38;;;11.70;;
22040;SDS011;11184;52.444;13.578;2024-01-15T02:28:24;16.05;;;12.13;;
22040;SDS011;11184;52.444;13.578;2024-01-15T02:31:09;11.85;;;10.65;;
22040;SDS011;11184;52.444;13.578;2024-01-15T02:33:53;18.35;;;13.60;;
22040;SDS011;11184;52.444;13.578;2024-01-15T02:36:38;20.05;;;12.32;;
22040;SDS011;11184;52.444;13.578;2024-01-15T02:39:23;19.20;;;11.68;;
22040;SDS011;11184;52.444;13.578;2024-01-15T02:42:07;12.07;;;10.88;;
22040;SDS011;11184;52.444;13.578;2024-01-15T02:44:52;12.32;;;10.52;;
22040;SDS011;11184;52.444;13.578;2024-01-15T02:47:36;12.38;;;10.40;;
22040;SDS011;11184;52.444;13.578;2024-01-15T02:50:21;15.50;;;8.93;;
22040;SDS011;11184;52.444;13.578;2024-01-15T02:53:06;18.90;;;10.50;;
22040;SDS011;11184;52.444;13.578;2024-01-15T02:55:50;11.00;;;9.32;;
22040;SDS011;11184;52.444;13.578;2024-01-15T02:58:35;15.90;;;9.48;;
22040;SDS011;11184;52.444;13.578;2024-01-15T03:01:19;9.90;;;8.93;;
22040;SDS011;11184;52.444;13.578;2024-01-15T03:04:05;14.15;;;10.95;;
22040;SDS011;11184;52.444;13.578;2024-01-15T03:06:50;9.48;;;8.52;;
22040;SDS011;11184;52.444;13.578;2024-01-15T03:09:34;11.90;;;10.20;;
22040;SDS011;11184;52.444;13.578;2024-01-15T03:12:19;13.35;;;10.52;;
22040;SDS011;11184;52.444;13.578;2024-01-15T03:15:03;10.50;;;9.50;;
22040;SDS011;11184;52.444;13.578;2024-01-15T03:17:48;15.07;;;10.35;;
22040;SDS011;11184;52.444;13.578;2024-01-15T03:20:33;11.77;;;10.00;;
22040;SDS011;11184;52.444;13.578;2024-01-15T03:23:18;12.45;;;9.68;;
22040;SDS011;11184;52.444;13.578;2024-01-15T03:26:02;11.20;;;9.50;;
22040;SDS011;11184;52.444;13.578;2024-01-15T03:28:47;11.90;;;8.85;;
22040;SDS011;11184;52.444;13.578;2024-01-15T03:31:31;11.63;;;8.68;;
22040;SDS011;11184;52.444;13.578;2024-01-15T03:34:16;9.20;;;7.80;;
22040;SDS011;11184;52.444;13.578;2024-01-15T03:37:01;10.90;;;8.70;;
22040;SDS011;11184;52.444;13.578;2024-01-15T03:39:45;10.75;;;8.10;;
22040;SDS011;11184;52.444;13.578;2024-01-15T03:42:30;10.68;;;7.57;;
22040;SDS011;11184;52.444;13.578;2024-01-15T03:45:15;10.98;;;8.43;;
22040;SDS011;11184;52.444;13.578;2024-01-15T03:47:59;11.90;;;7.78;;
22040;SDS011;11184;52.444;13.578;2024-01-15T03:50:44;10.23;;;7.60;;
22040;SDS011;11184;52.444;13.578;2024-01-15T03:53:28;7.68;;;6.78;;
22040;SDS011;11184;52.444;13.578;2024-01-15T03:56:13;9.40;;;7.18;;
22040;SDS011;11184;52.444;13.578;2024-01-15T03:58:57;12.38;;;8.23;;
22040;SDS011;11184;52.444;13.578;2024-01-15T04:01:47;10.85;;;6.45;;
22040;SDS011;11184;52.444;13.578;2024-01-15T04:04:33;12.18;;;7.05;;
22040;SDS011;11184;52.444;13.578;2024-01-15T04:07:17;8.55;;;7.25;;
22040;SDS011;11184;52.444;13.578;2024-01-15T04:10:02;12.60;;;8.43;;
22040;SDS011;11184;52.444;13.578;2024-01-15T04:12:47;9.70;;;5.82;;
22040;SDS011;11184;52.444;13.578;2024-01-15T04:15:31;12.52;;;7.65;;
22040;SDS011;11184;52.444;13.578;2024-01-15T04:18:16;9.80;;;7.05;;
22040;SDS011;11184;52.444;13.578;2024-01-15T04:21:03;9.43;;;6.47;;
22040;SDS011;11184;52.444;13.578;2024-01-15T04:23:48;15.25;;;6.82;;
22040;SDS011;11184;52.444;13.578;2024-01-15T04:26:33;9.43;;;6.57;;
22040;SDS011;11184;52.444;13.578;2024-01-15T04:29:17;8.07;;;7.28;;
22040;SDS011;11184;52.444;13.578;2024-01-15T04:32:02;11.27;;;7.57;;
22040;SDS011;11184;52.444;13.578;2024-01-15T04:34:47;7.75;;;6.88;;
22040;SDS011;11184;52.444;13.578;2024-01-15T04:37:32;6.38;;;5.63;;
22040;SDS011;11184;52.444;13.578;2024-01-15T04:40:17;14.82;;;6.38;;
22040;SDS011;11184;52.444;13.578;2024-01-15T04:43:01;9.30;;;5.07;;
22040;SDS011;11184;52.444;13.578;2024-01-15T04:45:46;6.90;;;4.72;;
22040;SDS011;11184;52.444;13.578;2024-01-15T04:48:30;7.45;;;6.25;;
22040;SDS011;11184;52.444;13.578;2024-01-15T04:51:15;7.55;;;5.13;;
22040;SDS011;11184;52.444;13.578;2024-01-15T04:54:00;6.38;;;4.63;;
22040;SDS011;11184;52.444;13.578;2024-01-15T04:56:44;10.18;;;5.07;;
22040;SDS011;11184;52.444;13.578;2024-01-15T04:59:29;6.80;;;5.18;;
22040;SDS011;11184;52.444;13.578;2024-01-15T05:02:13;11.95;;;5.80;;
22040;SDS011;11184;52.444;13.578;2024-01-15T05:04:58;8.77;;;4.25;;
22040;SDS011;11184;52.444;13.578;2024-01-15T05:07:43;5.25;;;4.75;;
22040;SDS011;11184;52.444;13.578;2024-01-15T05:10:27;5.40;;;4.78;;
22040;SDS011;11184;52.444;13.578;2024-01-15T05:13:12;6.60;;;4.78;;
22040;SDS011;11184;52.444;13.578;2024-01-15T05:15:56;5.75;;;4.75;;
22040;SDS011;11184;52.444;13.578;2024-01-15T05:18:41;11.98;;;5.18;;
22040;SDS011;11184;52.444;13.578;2024-01-15T05:21:27;6.78;;;4.20;;
22040;SDS011;11184;52.444;13.578;2024-01-15T05:24:11;5.07;;;3.67;;
22040;SDS011;11184;52.444;13.578;2024-01-15T05:26:56;5.78;;;4.15;;
22040;SDS011;11184;52.444;13.578;2024-01-15T05:29:41;9.73;;;4.38;;
22040;SDS011;11184;52.444;13.578;2024-01-15T05:32:26;10.25;;;4.35;;
22040;SDS011;11184;52.444;13.578;2024-01-15T05:35:10;5.88;;;4.43;;
22040;SDS011;11184;52.444;13.578;2024-01-15T05:37:55;6.88;;;4.07;;
22040;SDS011;11184;52.444;13.578;2024-01-15T05:40:39;5.40;;;4.53;;
22040;SDS011;11184;52.444;13.578;2024-01-15T05:43:24;10.77;;;4.80;;
22040;SDS011;11184;52.444;13.578;2024-01-15T05:46:09;6.53;;;4.97;;
22040;SDS011;11184;52.444;13.578;2024-01-15T05:48:54;11.75;;;4.50;;
22040;SDS011;11184;52.444;13.578;2024-01-15T05:51:38;4.68;;;4.28;;
22040;SDS011;11184;52.444;13.578;2024-01-15T05:54:23;5.63;;;3.45;;
22040;SDS011;11184;52.444;13.578;2024-01-15T05:57:08;7.15;;;4.50;;
22040;SDS011;11184;52.444;13.578;2024-01-15T05:59:53;13.13;;;5.65;;
22040;SDS011;11184;52.444;13.578;2024-01-15T06:02:38;10.20;;;5.47;;
22040;SDS011;11184;52.444;13.578;2024-01-15T06:05:23;12.90;;;4.40;;
22040;SDS011;11184;52.444;13.578;2024-01-15T06:08:07;14.18;;;5.80;;
22040;SDS011;11184;52.444;13.578;2024-01-15T06:10:52;5.93;;;4.07;;
22040;SDS011;11184;52.444;13.578;2024-01-15T06:13:37;8.50;;;4.03;;
22040;SDS011;11184;52.444;13.578;2024-01-15T06:16:21;5.72;;;3.83;;
22040;SDS011;11184;52.444;13.578;2024-01-15T06:19:06;5.10;;;3.60;;
22040;SDS011;11184;52.444;13.578;2024-01-15T06:21:50;13.50;;;3.88;;
22040;SDS011;11184;52.444;13.578;2024-01-15T06:24:35;10.27;;;3.95;;
22040;SDS011;11184;52.444;13.578;2024-01-15T06:27:20;7.22;;;3.35;;
22040;SDS011;11184;52.444;13.578;2024-01-15T06:30:04;7.40;;;2.80;;
22040;SDS011;11184;52.444;13.578;2024-01-15T06:32:49;6.82;;;3.90;;
22040;SDS011;11184;52.444;13.578;2024-01-15T06:35:34;4.45;;;2.78;;
22040;SDS011;11184;52.444;13.578;2024-01-15T06:38:19;9.50;;;3.30;;
22040;SDS011;11184;52.444;13.578;2024-01-15T06:41:03;9.48;;;3.08;;
22040;SDS011;11184;52.444;13.578;2024-01-15T06:43:48;9.98;;;3.58;;
22040;SDS011;11184;52.444;13.578;2024-01-15T06:46:32;3.67;;;2.80;;
22040;SDS011;11184;52.444;13.578;2024-01-15T06:49:17;11.13;;;3.30;;
22040;SDS011;11184;52.444;13.578;2024-01-15T06:52:02;10.32;;;3.58;;
22040;SDS011;11184;52.444;13.578;2024-01-15T06:54:46;6.05;;;2.05;;
22040;SDS011;11184;52.444;13.578;2024-01-15T06:57:31;20.15;;;4.05;;
22040;SDS011;11184;52.444;13.578;2024-01-15T07:00:16;9.30;;;3.35;;
22040;SDS011;11184;52.444;13.578;2024-01-15T07:03:00;4.93;;;1.85;;
22040;SDS011;11184;52.444;13.578;2024-01-15T07:05:45;4.28;;;2.40;;
22040;SDS011;11184;52.444;13.578;2024-01-15T07:08:30;5.88;;;2.35;;
22040;SDS011;11184;52.444;13.578;2024-01-15T07:11:14;11.23;;;2.88;;
22040;SDS011;11184;52.444;13.578;2024-01-15T07:13:59;8.77;;;2.70;;
22040;SDS011;11184;52.444;13.578;2024-01-15T07:16:44;16.42;;;4.07;;
22040;SDS011;11184;52.444;13.578;2024-01-15T07:19:28;4.97;;;3.33;;
22040;SDS011;11184;52.444;13.578;2024-01-15T07:22:13;7.25;;;1.90;;
22040;SDS011;11184;52.444;13.578;2024-01-15T07:24:58;8.77;;;1.95;;
22040;SDS011;11184;52.444;13.578;2024-01-15T07:27:43;5.05;;;2.00;;
22040;SDS011;11184;52.444;13.578;2024-01-15T07:30:28;10.43;;;3.28;;
22040;SDS011;11184;52.444;13.578;2024-01-15T07:33:12;4.70;;;1.70;;
22040;SDS011;11184;52.444;13.578;2024-01-15T07:35:57;16.42;;;3.17;;
22040;SDS011;11184;52.444;13.578;2024-01-15T07:38:41;5.57;;;2.00;;
22040;SDS011;11184;52.444;13.578;2024-01-15T07:41:27;11.35;;;2.67;;
22040;SDS011;11184;52.444;13.578;2024-01-15T07:44:11;7.90;;;1.55;;
22040;SDS011;11184;52.444;13.578;2024-01-15T07:46:56;6.10;;;1.52;;
22040;SDS011;11184;52.444;13.578;2024-01-15T07:49:40;11.02;;;2.08;;
22040;SDS011;11184;52.444;13.578;2024-01-15T07:52:25;7.20;;;1.77;;
22040;SDS011;11184;52.444;13.578;2024-01-15T07:55:11;9.52;;;2.88;;
22040;SDS011;11184;52.444;13.578;2024-01-15T07:57:55;5.28;;;1.88;;
22040;SDS011;11184;52.444;13.578;2024-01-15T08:00:42;8.07;;;2.55;;
22040;SDS011;11184;52.444;13.578;2024-01-15T08:03:28;13.15;;;3.17;;
22040;SDS011;11184;52.444;13.578;2024-01-15T08:06:12;5.57;;;2.13;;
22040;SDS011;11184;52.444;13.578;2024-01-15T08:08:57;7.18;;;2.25;;
22040;SDS011;11184;52.444;13.578;2024-01-15T08:11:42;8.65;;;3.47;;
22040;SDS011;11184;52.444;13.578;2024-01-15T08:14:27;7.00;;;3.28;;
22040;SDS011;11184;52.444;13.578;2024-01-15T08:17:12;13.10;;;5.80;;
22040;SDS011;11184;52.444;13.578;2024-01-15T08:19:56;5.53;;;2.30;;
22040;SDS011;11184;52.444;13.578;2024-01-15T08:22:41;10.65;;;2.20;;
22040;SDS011;11184;52.444;13.578;2024-01-15T08:25:26;4.97;;;2.47;;
22040;SDS011;11184;52.444;13.578;2024-01-15T08:28:10;5.75;;;2.45;;
22040;SDS011;11184;52.444;13.578;2024-01-15T08:30:55;9.25;;;3.08;;
22040;SDS011;11184;52.444;13.578;2024-01-15T08:33:39;6.53;;;1.77;;
22040;SDS011;11184;52.444;13.578;2024-01-15T08:36:24;15.45;;;2.58;;
22040;SDS011;11184;52.444;13.578;2024-01-15T08:39:09;5.22;;;1.83;;
22040;SDS011;11184;52.444;13.578;2024-01-15T08:41:55;7.90;;;2.28;;
22040;SDS011;11184;52.444;13.578;2024-01-15T08:44:39;5.57;;;2.13;;
22040;SDS011;11184;52.444;13.578;2024-01-15T08:47:27;4.95;;;2.50;;
22040;SDS011;11184;52.444;13.578;2024-01-15T08:50:11;7.00;;;2.25;;
22040;SDS011;11184;52.444;13.578;2024-01-15T08:52:56;6.55;;;2.20;;
22040;SDS011;11184;52.444;13.578;2024-01-15T08:55:40;6.65;;;1.70;;
22040;SDS011;11184;52.444;13.578;2024-01-15T08:58:28;8.13;;;1.88;;
22040;SDS011;11184;52.444;13.578;2024-01-15T09:01:13;10.15;;;3.40;;
22040;SDS011;11184;52.444;13.578;2024-01-15T09:03:57;4.57;;;1.90;;
22040;SDS011;11184;52.444;13.578;2024-01-15T09:06:44;7.38;;;2.03;;
22040;SDS011;11184;52.444;13.578;2024-01-15T09:09:30;3.97;;;1.70;;
22040;SDS011;11184;52.444;13.578;2024-01-15T09:12:15;2.25;;;1.40;;
22040;SDS011;11184;52.444;13.578;2024-01-15T09:15:01;5.40;;;1.73;;
22040;SDS011;11184;52.444;13.578;2024-01-15T09:17:48;8.23;;;2.08;;
22040;SDS011;11184;52.444;13.578;2024-01-15T09:20:32;12.40;;;2.65;;
22040;SDS011;11184;52.444;13.578;2024-01-15T09:23:17;12.80;;;2.60;;
22040;SDS011;11184;52.444;13.578;2024-01-15T09:26:01;7.95;;;4.13;;
22040;SDS011;11184;52.444;13.578;2024-01-15T09:28:46;4.43;;;1.83;;
22040;SDS011;11184;52.444;13.578;2024-01-15T09:31:30;15.13;;;3.22;;
22040;SDS011;11184;52.444;13.578;2024-01-15T09:34:15;5.80;;;1.90;;
22040;SDS011;11184;52.444;13.578;2024-01-15T09:37:00;8.48;;;2.03;;
22040;SDS011;11184;52.444;13.578;2024-01-15T09:39:45;7.28;;;2.42;;
22040;SDS011;11184;52.444;13.578;2024-01-15T09:42:31;9.13;;;2.60;;
22040;SDS011;11184;52.444;13.578;2024-01-15T09:45:16;7.65;;;2.33;;
22040;SDS011;11184;52.444;13.578;2024-01-15T09:48:01;11.77;;;2.38;;
22040;SDS011;11184;52.444;13.578;2024-01-15T09:50:45;13.73;;;2.75;;
22040;SDS011;11184;52.444;13.578;2024-01-15T09:53:30;8.75;;;2.67;;
22040;SDS011;11184;52.444;13.578;2024-01-15T09:56:15;9.02;;;2.88;;
22040;SDS011;11184;52.444;13.578;2024-01-15T09:58:59;10.00;;;3.00;;
22040;SDS011;11184;52.444;13.578;2024-01-15T10:01:44;7.30;;;2.03;;
22040;SDS011;11184;52.444;13.578;2024-01-15T10:04:31;9.27;;;2.65;;
22040;SDS011;11184;52.444;13.578;2024-01-15T10:07:16;12.50;;;3.58;;
22040;SDS011;11184;52.444;13.578;2024-01-15T10:10:02;4.63;;;3.15;;
22040;SDS011;11184;52.444;13.578;2024-01-15T10:12:48;6.68;;;2.47;;
22040;SDS011;11184;52.444;13.578;2024-01-15T10:15:34;4.68;;;1.92;;
22040;SDS011;11184;52.444;13.578;2024-01-15T10:18:21;2.97;;;1.55;;
22040;SDS011;11184;52.444;13.578;2024-01-15T10:21:06;9.48;;;2.05;;
22040;SDS011;11184;52.444;13.578;2024-01-15T10:23:51;5.68;;;1.90;;
22040;SDS011;11184;52.444;13.578;2024-01-15T10:26:36;6.28;;;1.65;;
22040;SDS011;11184;52.444;13.578;2024-01-15T10:29:21;2.75;;;2.15;;
22040;SDS011;11184;52.444;13.578;2024-01-15T10:32:06;5.60;;;2.83;;
22040;SDS011;11184;52.444;13.578;2024-01-15T10:34:52;8.65;;;2.53;;
22040;SDS011;11184;52.444;13.578;2024-01-15T10:37:37;4.55;;;2.35;;
22040;SDS011;11184;52.444;13.578;2024-01-15T10:40:22;9.60;;;2.55;;
22040;SDS011;11184;52.444;13.578;2024-01-15T10:43:07;3.00;;;1.27;;
22040;SDS011;11184;52.444;13.578;2024-01-15T10:45:51;3.17;;;1.40;;
22040;SDS011;11184;52.444;13.578;2024-01-15T10:48:36;4.68;;;2.33;;
22040;SDS011;11184;52.444;13.578;2024-01-15T10:51:20;7.82;;;3.10;;
22040;SDS011;11184;52.444;13.578;2024-01-15T10:54:05;9.15;;;5.20;;
22040;SDS011;11184;52.444;13.578;2024-01-15T10:56:54;4.20;;;1.73;;
22040;SDS011;11184;52.444;13.578;2024-01-15T10:59:40;7.05;;;2.15;;
22040;SDS011;11184;52.444;13.578;2024-01-15T11:02:24;10.30;;;2.30;;
22040;SDS011;11184;52.444;13.578;2024-01-15T11:05:10;6.43;;;2.08;;
22040;SDS011;11184;52.444;13.578;2024-01-15T11:07:55;5.68;;;1.70;;
22040;SDS011;11184;52.444;13.578;2024-01-15T11:10:44;3.58;;;2.30;;
22040;SDS011;11184;52.444;13.578;2024-01-15T11:16:23;4.43;;;1.85;;
22040;SDS011;11184;52.444;13.578;2024-01-15T11:19:07;4.50;;;1.48;;
22040;SDS011;11184;52.444;13.578;2024-01-15T11:21:52;6.25;;;1.48;;
22040;SDS011;11184;52.444;13.578;2024-01-15T11:24:40;3.63;;;1.08;;
22040;SDS011;11184;52.444;13.578;2024-01-15T11:27:41;4.53;;;1.55;;
22040;SDS011;11184;52.444;13.578;2024-01-15T11:30:26;2.70;;;1.83;;
22040;SDS011;11184;52.444;13.578;2024-01-15T11:33:31;1.75;;;1.40;;
22040;SDS011;11184;52.444;13.578;2024-01-15T11:36:16;2.60;;;1.30;;
22040;SDS011;11184;52.444;13.578;2024-01-15T11:39:00;3.40;;;1.30;;
22040;SDS011;11184;52.444;13.578;2024-01-15T11:42:05;4.10;;;1.17;;
22040;SDS011;11184;52.444;13.578;2024-01-15T11:44:50;1.67;;;1.08;;
22040;SDS011;11184;52.444;13.578;2024-01-15T11:47:54;3.20;;;1.55;;
22040;SDS011;11184;52.444;13.578;2024-01-15T11:50:46;3.33;;;1.55;;
22040;SDS011;11184;52.444;13.578;2024-01-15T11:53:35;2.35;;;1.92;;
22040;SDS011;11184;52.444;13.578;2024-01-15T11:56:21;1.50;;;1.15;;
22040;SDS011;11184;52.444;13.578;2024-01-15T11:59:07;5.60;;;1.73;;
22040;SDS011;11184;52.444;13.578;2024-01-15T12:01:52;2.15;;;2.00;;
22040;SDS011;11184;52.444;13.578;2024-01-15T12:04:37;3.10;;;1.75;;
22040;SDS011;11184;52.444;13.578;2024-01-15T12:07:23;1.77;;;1.33;;
22040;SDS011;11184;52.444;13.578;2024-01-15T12:10:11;3.70;;;1.55;;
22040;SDS011;11184;52.444;13.578;2024-01-15T12:12:57;4.10;;;2.03;;
22040;SDS011;11184;52.444;13.578;2024-01-15T12:15:43;2.00;;;1.80;;
22040;SDS011;11184;52.444;13.578;2024-01-15T12:18:28;4.13;;;1.67;;
22040;SDS011;11184;52.444;13.578;2024-01-15T12:21:13;2.90;;;1.73;;
22040;SDS011;11184;52.444;13.578;2024-01-15T12:23:58;3.03;;;1.48;;
22040;SDS011;11184;52.444;13.578;2024-01-15T12:26:43;2.22;;;1.40;;
22040;SDS011;11184;52.444;13.578;2024-01-15T12:29:28;2.80;;;1.75;;
22040;SDS011;11184;52.444;13.578;2024-01-15T12:32:13;1.05;;;0.98;;
22040;SDS011;11184;52.444;13.578;2024-01-15T12:34:58;1.58;;;1.15;;
22040;SDS011;11184;52.444;13.578;2024-01-15T12:37:43;3.78;;;1.67;;
22040;SDS011;11184;52.444;13.578;2024-01-15T12:40:30;3.53;;;1.52;;
22040;SDS011;11184;52.444;13.578;2024-01-15T12:43:17;2.33;;;1.50;;
22040;SDS011;11184;52.444;13.578;2024-01-15T12:46:01;1.70;;;1.60;;
22040;SDS011;11184;52.444;13.578;2024-01-15T12:48:46;2.40;;;1.35;;
22040;SDS011;11184;52.444;13.578;2024-01-15T12:51:31;2.40;;;1.77;;
22040;SDS011;11184;52.444;13.578;2024-01-15T12:54:18;4.05;;;1.55;;
22040;SDS011;11184;52.444;13.578;2024-01-15T12:57:02;1.27;;;1.17;;
22040;SDS011;11184;52.444;13.578;2024-01-15T12:59:47;0.93;;;0.93;;
22040;SDS011;11184;52.444;13.578;2024-01-15T13:02:32;2.80;;;1.50;;
22040;SDS011;11184;52.444;13.578;2024-01-15T13:05:17;1.38;;;1.20;;
22040;SDS011;11184;52.444;13.578;2024-01-15T13:08:02;1.23;;;1.13;;
22040;SDS011;11184;52.444;13.578;2024-01-15T13:10:47;40.85;;;28.20;;
22040;SDS011;11184;52.444;13.578;2024-01-15T13:13:31;4.28;;;1.27;;
22040;SDS011;11184;52.444;13.578;2024-01-15T13:16:18;1.45;;;1.23;;
22040;SDS011;11184;52.444;13.578;2024-01-15T13:19:04;1.77;;;1.35;;
22040;SDS011;11184;52.444;13.578;2024-01-15T13:21:50;2.17;;;1.33;;
22040;SDS011;11184;52.444;13.578;2024-01-15T13:24:35;3.63;;;1.50;;
22040;SDS011;11184;52.444;13.578;2024-01-15T13:27:20;2.17;;;1.45;;
22040;SDS011;11184;52.444;13.578;2024-01-15T13:30:04;1.10;;;0.90;;
22040;SDS011;11184;52.444;13.578;2024-01-15T13:32:50;2.75;;;1.50;;
22040;SDS011;11184;52.444;13.578;2024-01-15T13:35:36;1.63;;;1.33;;
22040;SDS011;11184;52.444;13.578;2024-01-15T13:38:23;2.70;;;1.42;;
22040;SDS011;11184;52.444;13.578;2024-01-15T13:41:08;3.42;;;1.20;;
22040;SDS011;11184;52.444;13.578;2024-01-15T13:43:53;5.43;;;1.40;;
22040;SDS011;11184;52.444;13.578;2024-01-15T13:46:38;3.53;;;1.85;;
22040;SDS011;11184;52.444;13.578;2024-01-15T13:49:23;2.33;;;1.85;;
22040;SDS011;11184;52.444;13.578;2024-01-15T13:52:08;1.63;;;1.52;;
22040;SDS011;11184;52.444;13.578;2024-01-15T13:54:52;4.32;;;2.28;;
22040;SDS011;11184;52.444;13.578;2024-01-15T13:57:37;4.80;;;2.28;;
22040;SDS011;11184;52.444;13.578;2024-01-15T14:00:21;3.13;;;1.95;;
22040;SDS011;11184;52.444;13.578;2024-01-15T14:03:06;2.25;;;1.65;;
22040;SDS011;11184;52.444;13.578;2024-01-15T14:05:52;2.50;;;1.92;;
22040;SDS011;11184;52.444;13.578;2024-01-15T14:08:37;2.67;;;1.95;;
22040;SDS011;11184;52.444;13.578;2024-01-15T14:11:22;3.47;;;1.63;;
22040;SDS011;11184;52.444;13.578;2024-01-15T14:14:07;4.53;;;1.77;;
22040;SDS011;11184;52.444;13.578;2024-01-15T14:16:53;3.20;;;1.77;;
22040;SDS011;11184;52.444;13.578;2024-01-15T14:19:38;5.50;;;1.70;;
22040;SDS011;11184;52.444;13.578;2024-01-15T14:22:22;4.07;;;2.83;;
22040;SDS011;11184;52.444;13.578;2024-01-15T14:25:07;6.78;;;2.20;;
22040;SDS011;11184;52.444;13.578;2024-01-15T14:27:52;9.18;;;2.90;;
22040;SDS011;11184;52.444;13.578;2024-01-15T14:30:37;6.90;;;2.47;;
22040;SDS011;11184;52.444;13.578;2024-01-15T14:33:21;3.13;;;1.63;;
22040;SDS011;11184;52.444;13.578;2024-01-15T14:36:06;3.15;;;1.80;;
22040;SDS011;11184;52.444;13.578;2024-01-15T14:38:50;7.40;;;2.53;;
22040;SDS011;11184;52.444;13.578;2024-01-15T14:41:35;6.40;;;2.88;;
22040;SDS011;11184;52.444;13.578;2024-01-15T14:44:20;3.05;;;1.83;;
22040;SDS011;11184;52.444;13.578;2024-01-15T14:47:07;3.05;;;2.58;;
22040;SDS011;11184;52.444;13.578;2024-01-15T14:49:52;2.25;;;1.33;;
22040;SDS011;11184;52.444;13.578;2024-01-15T14:52:36;4.50;;;1.83;;
22040;SDS011;11184;52.444;13.578;2024-01-15T14:55:21;2.00;;;1.67;;
22040;SDS011;11184;52.444;13.578;2024-01-15T14:58:09;4.63;;;1.70;;
22040;SDS011;11184;52.444;13.578;2024-01-15T15:00:53;3.92;;;1.80;;
22040;SDS011;11184;52.444;13.578;2024-01-15T15:03:39;2.97;;;1.42;;
22040;SDS011;11184;52.444;13.578;2024-01-15T15:06:24;3.22;;;1.73;;
22040;SDS011;11184;52.444;13.578;2024-01-15T15:09:11;2.28;;;1.67;;
22040;SDS011;11184;52.444;13.578;2024-01-15T15:11:55;2.22;;;1.65;;
22040;SDS011;11184;52.444;13.578;2024-01-15T15:14:40;2.03;;;1.40;;
22040;SDS011;11184;52.444;13.578;2024-01-15T15:17:26;2.67;;;1.65;;
22040;SDS011;11184;52.444;13.578;2024-01-15T15:20:10;2.30;;;1.48;;
22040;SDS011;11184;52.444;13.578;2024-01-15T15:22:55;3.20;;;1.50;;
22040;SDS011;11184;52.444;13.578;2024-01-15T15:25:40;4.30;;;1.40;;
22040;SDS011;11184;52.444;13.578;2024-01-15T15:28:26;2.72;;;1.85;;
22040;SDS011;11184;52.444;13.578;2024-01-15T15:31:11;7.55;;;2.08;;
22040;SDS011;11184;52.444;13.578;2024-01-15T15:33:56;4.53;;;1.42;;
22040;SDS011;11184;52.444;13.578;2024-01-15T15:36:40;4.78;;;1.80;;
22040;SDS011;11184;52.444;13.578;2024-01-15T15:39:25;3.30;;;1.88;;
22040;SDS011;11184;52.444;13.578;2024-01-15T15:42:10;3.20;;;1.60;;
22040;SDS011;11184;52.444;13.578;2024-01-15T15:44:54;2.45;;;1.80;;
22040;SDS011;11184;52.444;13.578;2024-01-15T15:47:41;5.72;;;1.63;;
22040;SDS011;11184;52.444;13.578;2024-01-15T15:50:25;2.67;;;1.77;;
22040;SDS011;11184;52.444;13.578;2024-01-15T15:53:10;5.63;;;1.83;;
22040;SDS011;11184;52.444;13.578;2024-01-15T15:55:55;7.97;;;1.95;;
22040;SDS011;11184;52.444;13.578;2024-01-15T15:58:40;3.08;;;2.50;;
22040;SDS011;11184;52.444;13.578;2024-01-15T16:01:25;3.67;;;1.83;;
22040;SDS011;11184;52.444;13.578;2024-01-15T16:04:10;6.28;;;1.98;;
22040;SDS011;11184;52.444;13.578;2024-01-15T16:06:54;3.47;;;2.40;;
22040;SDS011;11184;52.444;13.578;2024-01-15T16:09:39;7.60;;;2.05;;
22040;SDS011;11184;52.444;13.578;2024-01-15T16:12:24;4.43;;;2.38;;
22040;SDS011;11184;52.444;13.578;2024-01-15T16:15:19;5.40;;;2.40;;